Terminal Aerodrome Forecast
Issued by NWS

Home | Current Version | Previous Version | Text Only | Print | Product List | Glossary On
Versions: 1 2 3 4 5 6 7 8 9 10 11 12 13 14 15 16
000
FTPA31 PHFO 280522
TAFHNY
TAF
PHNY 280522Z 2806/2906 04015G22KT P6SM SCT025 BKN250
     FM280800 03011KT P6SM FEW025
     FM282000 04015G25KT 5SM -SHRA BKN020 OVC045
     FM290400 05012G20KT P6SM VCSH SCT025 BKN045=

USA.gov is the U.S. government's official web portal to all federal, state and local government web resources and services.